EGCC/MAN METAR and TAF weather

Enter ICAO airport designator
Station Type Date Time Source
EGCC METAR 2019/10/15 09:20 UTC NOAA

EGCC 150920Z VRB02KT 9999 BKN003 OVC007 10/10 Q1003


Station Type Date Time Source
EGCC Decoded METAR 2019/10/15 09:20 UTC NOAA

Manchester Airport, United Kingdom (EGCC) 53-21N 002-17W 0M
Oct 15, 2019 - 05:20 AM EDT / 2019.10.15 0920 UTC
Wind: Variable at 2 MPH (2 KT):0
Visibility: greater than 7 mile(s):0
Sky conditions: overcast
Temperature: 50 F (10 C)
Dew Point: 50 F (10 C)
Relative Humidity: 100%
Pressure (altimeter): 29.62 in. Hg (1003 hPa)
ob: EGCC 150920Z VRB02KT 9999 BKN003 OVC007 10/10 Q1003
cycle: 9

Station Type Date Time Source
EGCC TAF 2019/10/15 09:34 UTC NOAA

TAF
AMD EGCC 150927Z 1509/1612 18004KT 9999 BKN003 OVC007
BECMG 1509/1512 BKN010 PROB30
TEMPO 1509/1512 8000
BECMG 1512/1514 SCT020
BECMG 1600/1603 17014KT
TEMPO 1603/1606 6000 RA BKN012
BECMG 1606/1609 25008KT
TEMPO 1606/1609 8000 BKN008

Example: see airport list